Time;durP1;ratioP1;P1;durP2;ratioP2;P2;SDS_P1;SDS_P2;PMS_P1;PMS_P2;Temp;Humidity;BMP_temperature;BMP_pressure;BME280_temperature;BME280_humidity;BME280_pressure;Samples;Min_cycle;Max_cycle;Signal;HPM_P1;HPM_P2
2022/09/17 00:00:45;;;;;;;2.85;2.30;;;;;;;14.99;69.75;98043.23;1705166;83;21464;-67
2022/09/17 00:03:12;;;;;;;2.40;2.20;;;;;;;15.01;69.78;98043.80;1694200;83;20999;-67
2022/09/17 00:05:38;;;;;;;2.77;1.92;;;;;;;15.01;69.84;98038.45;1705786;83;21641;-67
2022/09/17 00:08:08;;;;;;;3.75;2.30;;;;;;;15.02;69.90;98049.44;1712085;83;21267;-68
2022/09/17 00:10:41;;;;;;;2.85;2.50;;;;;;;15.02;69.89;98038.20;1711443;83;21533;-66
2022/09/17 00:13:10;;;;;;;2.98;2.15;;;;;;;15.02;69.93;98030.69;1705508;83;21029;-67
2022/09/17 00:15:44;;;;;;;3.02;2.58;;;;;;;15.00;70.05;98036.81;1704922;83;20956;-67
2022/09/17 00:18:11;;;;;;;2.95;2.50;;;;;;;14.99;70.14;98043.23;1705598;83;21003;-66
2022/09/17 00:20:41;;;;;;;4.08;2.47;;;;;;;15.00;70.23;98040.83;1703513;83;21256;-67
2022/09/17 00:23:08;;;;;;;2.50;2.30;;;;;;;15.00;70.31;98039.48;1707103;82;21160;-65
2022/09/17 00:25:41;;;;;;;3.27;2.40;;;;;;;15.02;70.35;98031.51;1704434;83;21612;-66
2022/09/17 00:28:07;;;;;;;2.92;2.27;;;;;;;15.04;70.37;98032.63;1705623;83;20925;-65
2022/09/17 00:30:34;;;;;;;2.92;2.50;;;;;;;15.05;70.35;98039.60;1703698;83;21058;-67
2022/09/17 00:33:01;;;;;;;3.87;2.70;;;;;;;15.03;70.35;98037.69;1704886;83;22079;-67
2022/09/17 00:35:28;;;;;;;4.45;2.47;;;;;;;15.01;70.42;98044.63;1707323;83;21405;-67
2022/09/17 00:37:55;;;;;;;2.65;2.10;;;;;;;15.01;70.44;98040.61;1708123;83;21011;-65
2022/09/17 00:40:21;;;;;;;3.70;2.33;;;;;;;15.00;70.54;98038.97;1707787;83;21077;-66
2022/09/17 00:42:48;;;;;;;2.77;2.12;;;;;;;15.02;70.58;98027.49;1707594;83;21632;-66
2022/09/17 00:45:14;;;;;;;2.12;2.02;;;;;;;15.04;70.61;98015.23;1705754;83;21111;-67
2022/09/17 00:47:45;;;;;;;2.52;2.27;;;;;;;15.03;70.72;98017.60;1704811;83;20956;-68
2022/09/17 00:50:19;;;;;;;2.85;2.60;;;;;;;15.04;70.78;98020.06;1704492;83;21008;-67
2022/09/17 00:52:52;;;;;;;2.90;2.55;;;;;;;15.09;70.81;98024.71;1707422;83;21030;-66
2022/09/17 00:55:26;;;;;;;3.10;2.30;;;;;;;15.09;70.86;98022.03;1707635;83;20962;-67
2022/09/17 00:57:56;;;;;;;3.12;2.60;;;;;;;15.10;70.87;98018.28;1706732;83;21256;-68
2022/09/17 01:00:25;;;;;;;3.30;3.00;;;;;;;15.08;70.87;98016.38;1708365;83;21007;-68
2022/09/17 01:02:53;;;;;;;4.03;2.55;;;;;;;15.05;71.00;98010.14;1707606;83;21076;-66
2022/09/17 01:05:24;;;;;;;2.92;2.72;;;;;;;15.04;71.12;98012.55;1709774;83;21603;-66
2022/09/17 01:08:17;;;;;;;4.60;2.70;;;;;;;15.04;71.19;98015.23;1705160;83;21061;-68
2022/09/17 01:11:19;;;;;;;3.20;2.80;;;;;;;15.04;71.23;98015.23;1698378;83;21476;-68
2022/09/17 01:14:42;;;;;;;3.17;2.77;;;;;;;15.03;71.32;98019.77;1632081;86;21108;-67
2022/09/17 01:17:37;;;;;;;4.75;3.08;;;;;;;15.01;71.48;98018.37;1702964;83;21076;-68
2022/09/17 01:20:41;;;;;;;5.17;3.20;;;;;;;14.98;71.69;98024.19;1696972;83;21002;-68
2022/09/17 01:23:52;;;;;;;4.92;3.10;;;;;;;14.98;71.80;98020.16;1707884;83;20997;-67
2022/09/17 01:26:58;;;;;;;3.92;2.58;;;;;;;14.98;71.90;98026.86;1639323;85;21190;-68
2022/09/17 01:29:57;;;;;;;2.50;2.30;;;;;;;14.95;72.08;98030.82;1635828;86;21061;-68
2022/09/17 01:32:53;;;;;;;4.80;2.67;;;;;;;14.93;72.23;98021.39;1663854;85;21047;-67
2022/09/17 01:35:56;;;;;;;3.97;2.33;;;;;;;14.89;72.43;98022.38;1660787;84;20893;-67
2022/09/17 01:38:33;;;;;;;2.72;2.22;;;;;;;14.86;72.64;98030.86;1667992;85;21120;-66
2022/09/17 01:41:17;;;;;;;2.52;2.00;;;;;;;14.84;72.85;98027.09;1635791;87;21176;-67
2022/09/17 01:44:12;;;;;;;3.05;2.40;;;;;;;14.83;73.02;98032.14;1678250;83;20950;-66
2022/09/17 01:46:45;;;;;;;3.98;2.37;;;;;;;14.84;73.19;98036.46;1710817;83;21076;-68
2022/09/17 01:49:12;;;;;;;4.05;2.40;;;;;;;14.86;73.27;98036.22;1701772;83;20985;-67
2022/09/17 01:51:41;;;;;;;3.90;2.62;;;;;;;14.87;73.36;98049.08;1704427;83;21503;-68
2022/09/17 01:54:22;;;;;;;5.95;2.70;;;;;;;14.87;73.42;98046.41;1708174;83;21948;-66
2022/09/17 01:57:12;;;;;;;4.22;2.80;;;;;;;14.87;73.49;98049.08;1674584;83;21544;-67
2022/09/17 01:59:58;;;;;;;2.55;2.35;;;;;;;14.87;73.58;98054.44;1704989;83;21410;-67
2022/09/17 02:02:58;;;;;;;2.80;2.50;;;;;;;14.86;73.68;98055.50;1713618;83;20982;-67
2022/09/17 02:05:44;;;;;;;2.45;2.22;;;;;;;14.84;73.83;98056.54;1703877;83;20995;-68
2022/09/17 02:08:20;;;;;;;2.52;2.30;;;;;;;14.83;73.95;98046.08;1703981;83;21172;-68
2022/09/17 02:11:09;;;;;;;2.72;2.40;;;;;;;14.84;74.07;98049.02;1707818;83;20913;-67
2022/09/17 02:13:59;;;;;;;4.25;2.77;;;;;;;14.83;74.14;98041.52;1706825;83;21003;-68
2022/09/17 02:16:29;;;;;;;2.85;2.50;;;;;;;14.84;74.19;98039.66;1701843;83;20920;-67
2022/09/17 02:19:19;;;;;;;2.62;2.20;;;;;;;14.82;74.31;98038.56;1715724;83;20988;-67
2022/09/17 02:21:51;;;;;;;3.85;2.83;;;;;;;14.84;74.36;98032.45;1705996;83;21173;-66
2022/09/17 02:24:25;;;;;;;2.95;2.70;;;;;;;14.87;74.39;98023.65;1717449;83;20978;-67
2022/09/17 02:27:17;;;;;;;2.83;2.62;;;;;;;14.86;74.38;98009.99;1702002;83;21050;-67
2022/09/17 02:29:44;;;;;;;3.70;2.80;;;;;;;14.86;74.49;98012.67;1666972;83;21069;-67
2022/09/17 02:32:11;;;;;;;2.67;2.47;;;;;;;14.86;74.50;98012.67;1704428;83;20970;-65
2022/09/17 02:34:38;;;;;;;2.95;2.60;;;;;;;14.83;74.62;98025.45;1703815;83;21465;-68
2022/09/17 02:37:04;;;;;;;4.72;2.50;;;;;;;14.84;74.73;98028.43;1705642;83;20985;-67
2022/09/17 02:39:31;;;;;;;3.30;2.80;;;;;;;14.83;74.75;98024.11;1710137;83;21432;-66
2022/09/17 02:42:36;;;;;;;4.72;2.72;;;;;;;14.84;74.77;98023.08;1707137;83;20963;-67
2022/09/17 02:45:41;;;;;;;3.25;2.52;;;;;;;14.84;74.84;98027.09;1691736;82;21540;-65
2022/09/17 02:48:22;;;;;;;2.85;2.02;;;;;;;14.84;74.96;98024.41;1703006;83;21178;-66
2022/09/17 02:51:06;;;;;;;3.72;2.75;;;;;;;14.84;75.00;98022.25;1706948;83;20945;-66
2022/09/17 02:53:40;;;;;;;3.30;3.00;;;;;;;14.86;75.00;98017.47;1710983;83;21611;-67
2022/09/17 02:56:33;;;;;;;3.55;3.02;;;;;;;14.88;74.94;98025.30;1704027;83;21511;-68
2022/09/17 02:59:24;;;;;;;4.30;3.30;;;;;;;14.86;74.91;98032.75;1702997;83;20951;-67
2022/09/17 03:02:22;;;;;;;4.00;2.85;;;;;;;14.86;74.98;98036.77;1704168;83;21993;-68
2022/09/17 03:04:49;;;;;;;2.87;2.62;;;;;;;14.85;75.07;98034.60;1702885;83;20862;-67
2022/09/17 03:07:16;;;;;;;3.65;2.83;;;;;;;14.85;75.04;98030.59;1706639;83;20998;-66
2022/09/17 03:09:43;;;;;;;2.98;2.65;;;;;;;14.86;75.12;98034.09;1709168;83;21002;-66
2022/09/17 03:12:10;;;;;;;3.15;2.72;;;;;;;14.84;75.12;98032.45;1704593;82;20944;-66
2022/09/17 03:14:37;;;;;;;3.45;3.15;;;;;;;14.86;75.10;98036.22;1700894;83;22312;-68
2022/09/17 03:17:04;;;;;;;3.92;2.92;;;;;;;14.85;75.18;98030.59;1704260;82;21007;-68
2022/09/17 03:19:30;;;;;;;4.05;3.10;;;;;;;14.84;75.19;98029.77;1705411;83;20873;-68
2022/09/17 03:21:56;;;;;;;7.08;2.75;;;;;;;14.86;75.29;98028.19;1701568;83;20890;-68
2022/09/17 03:24:23;;;;;;;4.00;2.98;;;;;;;14.87;75.30;98017.78;1704955;83;21049;-66
2022/09/17 03:26:49;;;;;;;3.08;2.67;;;;;;;14.89;75.33;98013.55;1707226;83;21149;-68
2022/09/17 03:29:16;;;;;;;3.02;2.70;;;;;;;14.88;75.38;98022.62;1705199;83;20985;-67
2022/09/17 03:31:43;;;;;;;3.92;2.77;;;;;;;14.87;75.43;98031.16;1708079;83;20979;-67
2022/09/17 03:34:09;;;;;;;3.80;2.65;;;;;;;14.87;75.44;98037.86;1705762;83;20953;-67
2022/09/17 03:36:36;;;;;;;4.10;3.27;;;;;;;14.85;75.53;98034.60;1708656;83;21504;-67
2022/09/17 03:39:02;;;;;;;3.52;3.20;;;;;;;14.82;75.58;98039.90;1706276;83;21038;-67
2022/09/17 03:41:29;;;;;;;3.27;2.60;;;;;;;14.78;75.70;98040.05;1705472;83;20931;-67
2022/09/17 03:43:55;;;;;;;4.85;2.87;;;;;;;14.78;75.82;98044.62;1702977;83;20960;-67
2022/09/17 03:46:22;;;;;;;3.50;2.60;;;;;;;14.78;75.96;98045.41;1705369;83;21605;-66
2022/09/17 03:48:48;;;;;;;4.42;2.77;;;;;;;14.79;76.01;98046.23;1704180;83;20983;-67
2022/09/17 03:51:15;;;;;;;3.58;2.83;;;;;;;14.82;76.05;98047.11;1704486;83;21261;-68
2022/09/17 03:53:41;;;;;;;4.47;3.08;;;;;;;14.82;76.04;98041.75;1708731;83;21017;-67
2022/09/17 03:56:08;;;;;;;4.80;2.90;;;;;;;14.81;76.03;98039.59;1707146;83;20918;-67
2022/09/17 03:58:34;;;;;;;2.75;2.55;;;;;;;14.79;76.10;98044.89;1709578;83;20955;-68
2022/09/17 04:01:02;;;;;;;3.22;2.92;;;;;;;14.77;76.18;98052.34;1705586;83;20908;-68
2022/09/17 04:03:29;;;;;;;3.87;2.85;;;;;;;14.75;76.29;98041.06;1706902;83;21115;-66
2022/09/17 04:05:55;;;;;;;3.10;2.45;;;;;;;14.74;76.40;98038.90;1706628;83;20905;-66
2022/09/17 04:08:22;;;;;;;3.90;3.00;;;;;;;14.76;76.43;98040.81;1705103;83;21503;-68
2022/09/17 04:10:50;;;;;;;2.92;2.65;;;;;;;14.77;76.51;98047.81;1709321;83;20967;-67
2022/09/17 04:13:18;;;;;;;3.55;2.70;;;;;;;14.77;76.54;98041.12;1708178;83;20914;-68
2022/09/17 04:15:45;;;;;;;3.10;2.85;;;;;;;14.77;76.54;98043.80;1704082;83;21156;-68
2022/09/17 04:18:12;;;;;;;2.60;2.40;;;;;;;14.78;76.56;98045.95;1705050;83;20970;-66
2022/09/17 04:20:39;;;;;;;3.45;3.15;;;;;;;14.76;76.59;98044.83;1704936;83;21022;-68
2022/09/17 04:23:06;;;;;;;3.95;2.92;;;;;;;14.77;76.65;98041.64;1702400;83;21136;-68
2022/09/17 04:25:33;;;;;;;3.75;2.95;;;;;;;14.76;76.68;98040.81;1707435;83;21089;-66
2022/09/17 04:27:59;;;;;;;3.77;2.60;;;;;;;14.76;76.74;98044.01;1707330;83;21255;-66
2022/09/17 04:30:26;;;;;;;3.52;3.20;;;;;;;14.75;76.81;98042.40;1703201;83;21073;-68
2022/09/17 04:32:52;;;;;;;3.35;3.10;;;;;;;14.77;76.87;98046.99;1709929;83;20936;-68
2022/09/17 04:35:19;;;;;;;3.60;2.90;;;;;;;14.79;76.86;98039.02;1705446;83;20956;-67
2022/09/17 04:37:56;;;;;;;2.77;2.58;;;;;;;14.81;76.82;98044.95;1706786;83;20987;-66
2022/09/17 04:40:24;;;;;;;3.65;2.80;;;;;;;14.82;76.78;98054.62;1707919;83;21270;-67
2022/09/17 04:42:55;;;;;;;3.58;2.83;;;;;;;14.81;76.79;98050.30;1707488;83;20943;-67
2022/09/17 04:45:21;;;;;;;4.22;3.02;;;;;;;14.83;76.79;98054.11;1705100;83;20982;-67
2022/09/17 04:47:49;;;;;;;2.77;2.58;;;;;;;14.81;76.83;98055.66;1702637;83;21014;-68
2022/09/17 04:50:18;;;;;;;4.17;3.00;;;;;;;14.87;76.79;98061.13;1704834;83;20911;-67
2022/09/17 04:52:45;;;;;;;3.30;2.85;;;;;;;14.90;76.71;98056.66;1705637;83;21277;-68
2022/09/17 04:55:12;;;;;;;3.15;2.95;;;;;;;14.92;76.69;98051.88;1706593;83;21054;-67
2022/09/17 04:57:38;;;;;;;3.10;2.72;;;;;;;14.92;76.59;98052.70;1707491;83;20994;-67
2022/09/17 05:00:08;;;;;;;3.25;3.05;;;;;;;14.92;76.50;98047.86;1705653;83;20955;-68
2022/09/17 05:02:35;;;;;;;3.45;3.15;;;;;;;14.92;76.47;98045.19;1705630;83;21494;-66
2022/09/17 05:05:02;;;;;;;4.28;3.02;;;;;;;14.92;76.38;98039.83;1706058;83;21325;-67
2022/09/17 05:07:29;;;;;;;5.62;3.72;;;;;;;14.93;76.33;98042.81;1706136;83;21130;-66
2022/09/17 05:09:56;;;;;;;3.05;2.72;;;;;;;14.95;76.28;98050.08;1708619;83;20991;-68
2022/09/17 05:12:22;;;;;;;3.70;2.75;;;;;;;14.96;76.21;98051.72;1704589;83;21113;-67
2022/09/17 05:14:49;;;;;;;3.17;2.85;;;;;;;14.98;76.11;98053.64;1705946;83;20891;-67
2022/09/17 05:17:16;;;;;;;2.70;2.50;;;;;;;14.97;75.98;98051.48;1703526;83;21265;-66
2022/09/17 05:19:42;;;;;;;3.85;3.10;;;;;;;15.02;75.87;98058.81;1703583;83;22283;-68
2022/09/17 05:22:09;;;;;;;4.40;2.75;;;;;;;15.03;75.83;98055.91;1704286;83;20948;-66
2022/09/17 05:24:38;;;;;;;3.98;3.05;;;;;;;15.11;75.70;98048.05;1708721;83;21071;-68
2022/09/17 05:27:06;;;;;;;2.80;2.60;;;;;;;15.16;75.52;98045.48;1703832;83;21007;-66
2022/09/17 05:29:32;;;;;;;3.67;2.92;;;;;;;15.19;75.37;98051.72;1707004;83;21100;-67
2022/09/17 05:31:59;;;;;;;7.33;4.08;;;;;;;15.22;75.23;98057.44;1705695;83;20897;-67
2022/09/17 05:34:25;;;;;;;3.98;3.35;;;;;;;15.26;75.17;98053.23;1707912;83;21513;-67
2022/09/17 05:36:52;;;;;;;4.17;3.37;;;;;;;15.33;75.21;98054.43;1703792;83;21079;-67
2022/09/17 05:39:21;;;;;;;3.40;3.10;;;;;;;15.39;75.07;98058.34;1707069;83;20901;-65
2022/09/17 05:41:47;;;;;;;3.45;3.15;;;;;;;15.46;74.78;98068.16;1705823;83;21119;-66
2022/09/17 05:44:13;;;;;;;3.95;3.08;;;;;;;15.47;74.45;98068.44;1706828;83;20940;-68
2022/09/17 05:46:40;;;;;;;3.47;3.17;;;;;;;15.50;74.31;98070.13;1708249;82;21591;-66
2022/09/17 05:49:06;;;;;;;3.40;3.10;;;;;;;15.54;74.22;98073.95;1702347;83;20942;-67
2022/09/17 05:51:33;;;;;;;3.62;3.00;;;;;;;15.58;74.15;98067.61;1707610;82;21021;-68
2022/09/17 05:54:00;;;;;;;3.05;2.85;;;;;;;15.62;74.00;98073.59;1706828;83;21780;-68
2022/09/17 05:56:26;;;;;;;3.62;3.35;;;;;;;15.65;73.75;98068.28;1707761;83;20935;-66
2022/09/17 05:58:56;;;;;;;3.47;3.17;;;;;;;15.67;73.65;98076.38;1706713;83;21083;-67
2022/09/17 06:01:24;;;;;;;5.87;3.27;;;;;;;15.72;73.59;98070.33;1704501;83;21021;-67
2022/09/17 06:03:50;;;;;;;3.45;3.12;;;;;;;15.76;73.60;98064.25;1703752;83;21182;-67
2022/09/17 06:06:17;;;;;;;3.22;2.92;;;;;;;15.81;73.49;98061.67;1702270;83;21152;-67
2022/09/17 06:08:43;;;;;;;3.12;2.75;;;;;;;15.88;73.33;98062.86;1704043;83;20986;-68
2022/09/17 06:11:10;;;;;;;3.50;3.00;;;;;;;15.92;73.06;98054.12;1701823;83;21542;-66
2022/09/17 06:13:38;;;;;;;3.30;2.83;;;;;;;15.98;72.79;98053.70;1705771;83;21033;-66
2022/09/17 06:16:05;;;;;;;3.83;3.42;;;;;;;16.04;72.43;98051.38;1712168;83;21535;-66
2022/09/17 06:18:32;;;;;;;3.10;2.90;;;;;;;16.12;72.16;98058.23;1709661;83;21877;-68
2022/09/17 06:21:02;;;;;;;3.60;3.30;;;;;;;16.19;71.88;98057.58;1706977;83;20980;-65
2022/09/17 06:23:36;;;;;;;3.20;3.00;;;;;;;16.27;71.51;98057.20;1700164;83;21125;-66
2022/09/17 06:26:04;;;;;;;2.67;2.47;;;;;;;16.33;71.13;98054.35;1711224;83;21029;-66
2022/09/17 06:28:31;;;;;;;3.65;3.25;;;;;;;16.40;70.94;98052.33;1707565;83;21590;-68
2022/09/17 06:31:05;;;;;;;4.50;3.42;;;;;;;16.48;70.75;98041.20;1716666;83;21248;-68
2022/09/17 06:33:32;;;;;;;5.37;3.40;;;;;;;16.59;70.39;98035.50;1704048;83;21096;-67
2022/09/17 06:36:02;;;;;;;3.30;3.05;;;;;;;16.73;70.02;98038.69;1703997;83;21009;-69
2022/09/17 06:38:30;;;;;;;7.55;3.42;;;;;;;16.86;69.71;98035.68;1704696;83;21496;-67
2022/09/17 06:40:56;;;;;;;4.72;3.12;;;;;;;17.00;69.19;98032.41;1692487;83;21043;-68
2022/09/17 06:43:23;;;;;;;5.97;3.27;;;;;;;17.14;68.80;98021.61;1705455;83;21247;-69
2022/09/17 06:46:00;;;;;;;3.75;3.22;;;;;;;17.29;68.22;98017.78;1713366;83;21057;-67
2022/09/17 06:48:29;;;;;;;4.37;3.50;;;;;;;17.41;67.42;98030.31;1706126;83;21049;-69
2022/09/17 06:50:59;;;;;;;3.92;3.08;;;;;;;17.51;66.82;98031.78;1702688;83;21006;-68
2022/09/17 06:53:26;;;;;;;3.62;3.25;;;;;;;17.58;66.41;98033.77;1683145;83;20903;-67
2022/09/17 06:55:55;;;;;;;5.35;3.10;;;;;;;17.68;65.65;98029.87;1708966;83;21231;-66
2022/09/17 06:58:22;;;;;;;3.15;2.90;;;;;;;17.75;65.37;98033.20;1667920;83;21110;-68
2022/09/17 07:00:48;;;;;;;4.97;3.17;;;;;;;17.82;64.94;98032.47;1709348;83;21480;-67
2022/09/17 07:03:14;;;;;;;3.05;2.75;;;;;;;17.88;64.31;98045.72;1704997;83;20995;-67
2022/09/17 07:05:43;;;;;;;4.03;2.75;;;;;;;17.91;63.66;98036.33;1703644;83;21065;-68
2022/09/17 07:08:09;;;;;;;4.25;2.85;;;;;;;17.95;63.32;98032.09;1704919;83;21531;-66
2022/09/17 07:10:37;;;;;;;3.92;2.58;;;;;;;18.03;62.70;98041.06;1703914;83;21043;-67
2022/09/17 07:13:04;;;;;;;3.70;2.70;;;;;;;18.10;62.16;98043.54;1704421;83;21013;-68
2022/09/17 07:15:31;;;;;;;4.20;2.55;;;;;;;18.20;61.69;98044.47;1702080;83;21018;-69
2022/09/17 07:17:57;;;;;;;3.72;2.92;;;;;;;18.31;61.43;98052.93;1704181;83;21401;-67
2022/09/17 07:20:24;;;;;;;4.87;3.05;;;;;;;18.41;61.18;98058.41;1707000;83;21163;-67
2022/09/17 07:22:57;;;;;;;6.22;2.83;;;;;;;18.54;60.92;98066.64;1708902;83;20948;-66
2022/09/17 07:25:25;;;;;;;4.25;2.92;;;;;;;18.66;60.63;98070.00;1709011;82;20975;-66
2022/09/17 07:27:52;;;;;;;3.65;3.35;;;;;;;18.76;60.13;98067.39;1701990;83;21539;-65
2022/09/17 07:30:19;;;;;;;3.62;3.10;;;;;;;18.77;59.64;98060.92;1708904;83;21017;-67
2022/09/17 07:32:46;;;;;;;4.47;2.90;;;;;;;18.75;59.48;98061.72;1706329;83;22050;-65
2022/09/17 07:35:13;;;;;;;3.10;2.70;;;;;;;18.73;59.31;98069.25;1703953;83;21042;-67
2022/09/17 07:37:41;;;;;;;6.62;3.12;;;;;;;18.70;59.09;98066.25;1703946;83;21049;-66
2022/09/17 07:40:08;;;;;;;2.72;2.52;;;;;;;18.64;59.10;98078.06;1701049;83;21580;-67
2022/09/17 07:42:35;;;;;;;3.58;2.85;;;;;;;18.60;59.52;98071.55;1704344;83;21016;-67
2022/09/17 07:45:01;;;;;;;5.22;3.20;;;;;;;18.61;59.33;98074.53;1702950;83;21781;-67
2022/09/17 07:47:28;;;;;;;3.12;2.80;;;;;;;18.64;59.27;98074.81;1706390;83;20900;-67
2022/09/17 07:49:55;;;;;;;3.10;2.77;;;;;;;18.72;59.01;98073.00;1706120;83;20952;-66
2022/09/17 07:52:21;;;;;;;2.95;2.62;;;;;;;18.76;58.64;98070.63;1705805;83;21414;-68
2022/09/17 07:54:48;;;;;;;3.22;2.92;;;;;;;18.79;58.66;98070.11;1705457;83;21016;-68
2022/09/17 07:57:14;;;;;;;2.77;2.55;;;;;;;18.87;58.56;98073.69;1706669;83;22262;-65
2022/09/17 07:59:41;;;;;;;4.08;2.92;;;;;;;18.92;58.05;98066.46;1704181;82;21011;-67
2022/09/17 08:02:12;;;;;;;3.72;2.37;;;;;;;18.93;57.65;98065.90;1706467;83;20933;-66
2022/09/17 08:04:42;;;;;;;3.40;3.10;;;;;;;18.95;57.52;98073.22;1702116;83;20885;-66
2022/09/17 08:07:13;;;;;;;3.15;2.85;;;;;;;18.96;57.50;98070.78;1703000;83;21083;-67
2022/09/17 08:09:41;;;;;;;4.55;2.87;;;;;;;18.95;57.28;98066.48;1702153;83;21150;-65
2022/09/17 08:12:08;;;;;;;3.02;2.75;;;;;;;18.89;57.29;98062.11;1704247;83;20877;-66
2022/09/17 08:14:34;;;;;;;2.98;2.60;;;;;;;18.84;57.33;98052.64;1702243;83;21008;-65
2022/09/17 08:17:01;;;;;;;3.22;2.70;;;;;;;18.80;57.30;98059.59;1708463;82;20938;-67
2022/09/17 08:19:31;;;;;;;3.55;2.77;;;;;;;18.79;57.44;98060.16;1707077;82;21535;-67
2022/09/17 08:21:58;;;;;;;2.90;2.50;;;;;;;18.80;57.59;98063.11;1705278;83;21172;-65
2022/09/17 08:24:24;;;;;;;2.80;2.50;;;;;;;18.81;57.63;98063.92;1705171;83;21004;-67
2022/09/17 08:26:51;;;;;;;2.92;2.33;;;;;;;18.83;57.88;98061.25;1705200;82;21002;-67
2022/09/17 08:29:17;;;;;;;3.00;2.80;;;;;;;18.93;57.35;98059.16;1706590;83;21004;-68
2022/09/17 08:31:44;;;;;;;2.80;2.40;;;;;;;19.06;56.98;98060.08;1705211;83;21500;-68
2022/09/17 08:34:10;;;;;;;4.40;2.42;;;;;;;19.28;56.79;98052.69;1706354;83;21165;-68
2022/09/17 08:36:37;;;;;;;2.83;2.58;;;;;;;19.50;56.21;98047.98;1705356;83;20940;-66
2022/09/17 08:39:03;;;;;;;2.55;2.35;;;;;;;19.66;55.47;98053.73;1702120;83;21066;-67
2022/09/17 08:41:49;;;;;;;2.40;2.08;;;;;;;19.80;55.15;98051.91;1701675;83;21509;-68
2022/09/17 08:44:26;;;;;;;3.20;2.02;;;;;;;20.01;54.95;98049.03;1712022;83;20954;-66
2022/09/17 08:47:05;;;;;;;2.10;1.90;;;;;;;20.46;53.67;98045.67;1707387;83;21908;-67
2022/09/17 08:49:42;;;;;;;3.02;1.95;;;;;;;20.91;52.87;98062.44;1706839;83;21000;-68
2022/09/17 08:52:37;;;;;;;3.47;2.52;;;;;;;21.49;51.16;98062.41;1706702;83;20944;-67
2022/09/17 08:55:33;;;;;;;2.40;2.20;;;;;;;22.30;48.96;98060.77;1709306;83;20979;-67
2022/09/17 08:58:41;;;;;;;2.50;2.30;;;;;;;23.09;47.12;98053.73;1692059;83;21008;-65
2022/09/17 09:01:45;;;;;;;2.00;1.77;;;;;;;23.57;45.80;98046.51;1697724;84;21169;-67
2022/09/17 09:04:34;;;;;;;3.77;2.08;;;;;;;23.59;44.51;98036.98;1699879;84;20935;-66
2022/09/17 09:07:14;;;;;;;2.40;2.10;;;;;;;23.37;44.74;98043.44;1706547;83;21070;-66
2022/09/17 09:10:13;;;;;;;5.67;2.37;;;;;;;23.14;44.38;98045.00;1705918;83;20992;-67
2022/09/17 09:12:40;;;;;;;4.10;2.20;;;;;;;22.94;44.48;98052.51;1708658;82;20905;-65
2022/09/17 09:15:37;;;;;;;2.47;1.75;;;;;;;22.70;44.23;98054.59;1709584;83;21146;-67
2022/09/17 09:18:24;;;;;;;3.05;1.62;;;;;;;22.61;44.19;98055.42;1709875;83;21011;-66
2022/09/17 09:20:54;;;;;;;2.52;1.80;;;;;;;22.54;44.38;98054.39;1714926;83;20924;-65
2022/09/17 09:23:44;;;;;;;2.47;1.80;;;;;;;22.54;44.61;98058.46;1707145;83;21508;-65
2022/09/17 09:26:20;;;;;;;2.40;1.40;;;;;;;22.68;44.66;98060.03;1711040;83;20951;-69
2022/09/17 09:29:19;;;;;;;2.42;1.92;;;;;;;23.28;43.83;98055.42;1706743;83;21182;-69
2022/09/17 09:32:09;;;;;;;2.08;1.85;;;;;;;24.63;40.94;98043.78;1711040;83;20983;-68
2022/09/17 09:34:35;;;;;;;3.05;1.90;;;;;;;24.63;40.94;98043.78;1707397;83;20999;-68
2022/09/17 09:37:24;;;;;;;2.75;1.70;;;;;;;24.88;40.08;98042.04;1717160;83;21405;-67
2022/09/17 09:39:52;;;;;;;3.65;2.02;;;;;;;25.05;39.73;98033.61;1708666;82;21572;-66
2022/09/17 09:42:29;;;;;;;2.02;1.72;;;;;;;25.30;39.69;98035.60;1712225;83;21146;-66
2022/09/17 09:45:18;;;;;;;2.02;1.62;;;;;;;25.63;38.79;98042.08;1703465;83;20981;-66
2022/09/17 09:48:00;;;;;;;2.10;1.72;;;;;;;25.90;37.91;98044.55;1709489;82;20945;-66
2022/09/17 09:50:50;;;;;;;1.72;1.62;;;;;;;26.11;36.84;98045.75;1702191;83;21014;-67
2022/09/17 09:53:32;;;;;;;1.87;1.52;;;;;;;26.30;36.36;98046.45;1698937;83;20971;-66
2022/09/17 09:56:36;;;;;;;2.67;1.85;;;;;;;26.34;35.96;98048.81;1708265;83;21460;-66
2022/09/17 09:59:08;;;;;;;2.05;1.45;;;;;;;26.30;36.09;98048.64;1704061;83;20998;-65
2022/09/17 10:01:39;;;;;;;2.33;1.80;;;;;;;26.10;36.08;98047.66;1689578;83;21516;-66
2022/09/17 10:04:19;;;;;;;1.62;1.50;;;;;;;25.86;36.44;98035.38;1708106;83;21091;-67
2022/09/17 10:06:49;;;;;;;2.42;1.50;;;;;;;25.70;36.48;98038.97;1707296;83;21532;-67
2022/09/17 10:09:17;;;;;;;2.70;1.27;;;;;;;25.90;36.64;98029.56;1709405;82;21781;-66
2022/09/17 10:11:59;;;;;;;2.10;1.50;;;;;;;26.42;35.78;98028.19;1708811;83;21017;-66
2022/09/17 10:14:29;;;;;;;1.40;1.30;;;;;;;26.41;35.14;98028.73;1707384;83;21008;-66
2022/09/17 10:17:21;;;;;;;4.33;1.50;;;;;;;26.46;34.80;98031.94;1705626;83;20947;-67
2022/09/17 10:20:11;;;;;;;2.98;1.40;;;;;;;26.56;34.67;98024.33;1715673;83;20930;-67
2022/09/17 10:22:39;;;;;;;2.30;1.40;;;;;;;26.68;34.47;98016.39;1652723;82;21202;-68
2022/09/17 10:25:27;;;;;;;1.90;1.47;;;;;;;26.70;34.68;98010.61;1706150;83;21005;-68
2022/09/17 10:27:54;;;;;;;2.30;1.20;;;;;;;26.55;34.05;98015.88;1708689;83;21029;-67
2022/09/17 10:30:23;;;;;;;1.30;1.20;;;;;;;26.39;34.51;98021.44;1705330;83;20998;-68
2022/09/17 10:33:13;;;;;;;1.40;1.20;;;;;;;26.28;34.75;98004.50;1703830;83;21016;-68
2022/09/17 10:35:40;;;;;;;3.20;1.30;;;;;;;26.29;35.22;98010.77;1704988;82;21983;-68
2022/09/17 10:38:12;;;;;;;2.00;1.37;;;;;;;26.31;35.17;98005.80;1704235;83;20992;-68
2022/09/17 10:40:39;;;;;;;2.77;1.90;;;;;;;26.30;35.47;98011.02;1707830;83;20913;-68
2022/09/17 10:43:18;;;;;;;2.42;1.30;;;;;;;26.38;34.86;98017.11;1705329;83;21000;-67
2022/09/17 10:45:55;;;;;;;1.70;1.60;;;;;;;26.36;34.50;98019.31;1706242;83;21012;-67
2022/09/17 10:48:21;;;;;;;3.75;1.25;;;;;;;26.33;34.60;98015.28;1705624;83;21254;-67
2022/09/17 10:50:53;;;;;;;2.47;1.30;;;;;;;26.35;34.73;98010.36;1709792;82;20923;-66
2022/09/17 10:53:22;;;;;;;0.82;0.82;;;;;;;26.22;33.86;98004.38;1704702;83;20935;-66
2022/09/17 10:56:19;;;;;;;1.35;1.00;;;;;;;25.92;33.96;98015.08;1705590;83;20953;-68
2022/09/17 10:59:23;;;;;;;1.55;1.10;;;;;;;25.72;34.51;98010.87;1704238;83;21557;-67
2022/09/17 11:02:30;;;;;;;1.00;1.00;;;;;;;25.51;34.37;98013.19;1708306;83;21270;-67
2022/09/17 11:05:28;;;;;;;2.10;1.20;;;;;;;25.17;34.56;98015.42;1704529;83;20903;-66
2022/09/17 11:08:56;;;;;;;0.72;0.70;;;;;;;24.98;35.39;98006.50;1695466;83;20951;-66
2022/09/17 11:11:47;;;;;;;3.17;1.12;;;;;;;24.85;35.36;98002.64;1704589;83;20938;-66
2022/09/17 11:14:34;;;;;;;1.67;1.07;;;;;;;24.72;35.96;98003.37;1702829;82;21529;-66
2022/09/17 11:17:24;;;;;;;1.40;0.80;;;;;;;24.71;35.94;98002.33;1707623;82;21149;-68
2022/09/17 11:20:04;;;;;;;1.20;0.90;;;;;;;24.68;35.59;97992.03;1708195;83;21069;-66
2022/09/17 11:22:52;;;;;;;2.15;0.85;;;;;;;24.71;35.10;97980.58;1705869;83;20992;-67
2022/09/17 11:25:42;;;;;;;0.85;0.72;;;;;;;24.65;34.91;97973.05;1710598;83;21557;-65
2022/09/17 11:28:29;;;;;;;1.47;1.10;;;;;;;24.54;34.80;97973.77;1706850;83;20869;-66
2022/09/17 11:31:26;;;;;;;2.77;0.90;;;;;;;24.46;34.39;97969.00;1710152;83;21283;-67
2022/09/17 11:34:20;;;;;;;1.80;1.22;;;;;;;24.48;34.35;97973.58;1711078;83;20990;-68
2022/09/17 11:37:10;;;;;;;0.70;0.60;;;;;;;24.54;34.33;97968.33;1706404;83;20982;-66
2022/09/17 11:39:47;;;;;;;1.92;0.90;;;;;;;24.60;34.47;97964.16;1702388;83;20961;-66
2022/09/17 11:42:19;;;;;;;1.15;0.95;;;;;;;24.58;34.75;97963.89;1709623;83;21047;-68
2022/09/17 11:44:53;;;;;;;1.17;0.85;;;;;;;24.61;34.49;97963.89;1707199;83;21153;-68
2022/09/17 11:47:30;;;;;;;3.15;0.80;;;;;;;24.53;34.48;97959.91;1705106;83;21540;-67
2022/09/17 11:50:10;;;;;;;3.08;1.00;;;;;;;24.46;34.93;97968.18;1692681;82;20995;-67
2022/09/17 11:52:48;;;;;;;1.07;1.00;;;;;;;24.39;35.44;97962.33;1709633;82;21152;-66
2022/09/17 11:55:22;;;;;;;1.05;0.82;;;;;;;24.43;35.83;97961.97;1710956;83;20991;-67
2022/09/17 11:57:50;;;;;;;0.85;0.70;;;;;;;24.42;35.31;97967.98;1708543;83;21199;-66
2022/09/17 12:00:19;;;;;;;2.92;0.80;;;;;;;24.34;35.40;97970.55;1703253;83;20912;-68
2022/09/17 12:03:05;;;;;;;1.47;1.12;;;;;;;24.29;35.29;97964.66;1714963;83;20991;-66
2022/09/17 12:05:49;;;;;;;3.87;0.90;;;;;;;24.17;35.26;97956.70;1681955;82;20951;-66
2022/09/17 12:08:49;;;;;;;1.12;0.90;;;;;;;24.00;35.52;97955.81;1712030;83;20992;-66